EDLN/MGL METAR and TAF weather

Enter ICAO airport designator
Station Type Date Time Source
EDLN METAR 2018/04/20 08:50 UTC NOAA

EDLN 200850Z 15004KT 100V190 CAVOK 21/12 Q1023


Station Type Date Time Source
EDLN Decoded METAR 2018/04/20 08:50 UTC NOAA

Monchengladbach, Germany (EDLN) 51-13-49N 006-30-16E
Apr 20, 2018 - 04:50 AM EDT / 2018.04.20 0850 UTC
Wind: from the SSE (150 degrees) at 5 MPH (4 KT) (direction variable):0
Visibility: greater than 7 mile(s):0
Temperature: 69 F (21 C)
Dew Point: 53 F (12 C)
Relative Humidity: 56%
Pressure (altimeter): 30.21 in. Hg (1023 hPa)
ob: EDLN 200850Z 15004KT 100V190 CAVOK 21/12 Q1023
cycle: 9

Station Type Date Time Source
EDLN TAF 2010/02/22 14:20 UTC NOAA

METAR EDLN 221420Z 18010G20KT 090V240 9999 SCT030 BKN045 11/06 Q0986
RMK ATIS R=


Example: see airport list